Time,TemperatureF,DewpointF,PressureIn,WindDirection,WindDirectionDegrees,WindSpeedMPH,WindSpeedGustMPH,Humidity,HourlyPrecipIn,Conditions,Clouds,dailyrainin,SoftwareType,DateUTC
2013-02-07 00:09:00,78.2,74.0,29.91,ENE,78,4.0,7.0,87,0.00,,,0.00,weatherlink.com 1.10,2013-02-07 04:09:00,
2013-02-07 00:24:00,78.0,74.0,29.91,East,84,2.0,8.0,87,0.00,,,0.00,weatherlink.com 1.10,2013-02-07 04:24:00,
2013-02-07 00:39:00,78.0,74.0,29.90,East,84,5.0,7.0,87,0.00,,,0.00,weatherlink.com 1.10,2013-02-07 04:39:00,
2013-02-07 01:09:00,78.0,74.0,29.89,East,93,7.0,8.0,87,0.00,,,0.00,weatherlink.com 1.10,2013-02-07 05:09:00,
2013-02-07 01:24:00,77.8,74.0,29.89,East,101,1.0,7.0,87,0.00,,,0.00,weatherlink.com 1.10,2013-02-07 05:24:00,
2013-02-07 01:39:00,77.8,74.0,29.88,East,92,5.0,9.0,87,0.00,,,0.00,weatherlink.com 1.10,2013-02-07 05:39:00,
2013-02-07 01:54:00,77.9,74.0,29.88,East,81,2.0,7.0,87,0.00,,,0.00,weatherlink.com 1.10,2013-02-07 05:54:00,
2013-02-07 02:09:00,78.0,74.0,29.88,East,85,5.0,10.0,87,0.00,,,0.00,weatherlink.com 1.10,2013-02-07 06:09:00,
2013-02-07 02:24:00,78.3,74.0,29.87,ESE,114,7.0,9.0,86,0.00,,,0.00,weatherlink.com 1.10,2013-02-07 06:24:00,
2013-02-07 02:39:00,78.4,74.0,29.87,East,86,3.0,8.0,86,0.00,,,0.00,weatherlink.com 1.10,2013-02-07 06:39:00,
2013-02-07 02:54:00,78.1,74.0,29.86,ENE,63,5.0,8.0,87,0.00,,,0.00,weatherlink.com 1.10,2013-02-07 06:54:00,
2013-02-07 03:09:00,78.1,74.0,29.86,ENE,73,1.0,6.0,86,0.00,,,0.00,weatherlink.com 1.10,2013-02-07 07:09:00,
2013-02-07 03:24:00,77.8,73.0,29.86,East,90,3.0,7.0,86,0.00,,,0.00,weatherlink.com 1.10,2013-02-07 07:24:00,
2013-02-07 03:39:00,77.8,74.0,29.86,East,101,6.0,8.0,87,0.00,,,0.00,weatherlink.com 1.10,2013-02-07 07:39:00,
2013-02-07 03:54:00,78.1,74.0,29.86,ENE,78,3.0,11.0,86,0.00,,,0.00,weatherlink.com 1.10,2013-02-07 07:54:00,
2013-02-07 04:09:00,78.3,74.0,29.85,East,94,5.0,10.0,85,0.00,,,0.00,weatherlink.com 1.10,2013-02-07 08:09:00,
2013-02-07 04:24:00,78.2,73.0,29.85,East,88,3.0,11.0,84,0.00,,,0.00,weatherlink.com 1.10,2013-02-07 08:24:00,
2013-02-07 04:39:00,78.2,73.0,29.85,East,85,6.0,8.0,84,0.00,,,0.00,weatherlink.com 1.10,2013-02-07 08:39:00,
2013-02-07 04:54:00,78.2,73.0,29.85,ENE,76,5.0,10.0,85,0.00,,,0.00,weatherlink.com 1.10,2013-02-07 08:54:00,
2013-02-07 05:09:00,78.2,74.0,29.85,East,79,5.0,9.0,86,0.00,,,0.00,weatherlink.com 1.10,2013-02-07 09:09:00,
2013-02-07 05:24:00,78.2,74.0,29.85,East,82,3.0,9.0,86,0.00,,,0.00,weatherlink.com 1.10,2013-02-07 09:24:00,
2013-02-07 05:39:00,77.9,74.0,29.85,East,86,2.0,8.0,86,0.00,,,0.00,weatherlink.com 1.10,2013-02-07 09:39:00,
2013-02-07 05:54:00,77.8,74.0,29.85,ENE,68,5.0,9.0,87,0.00,,,0.00,weatherlink.com 1.10,2013-02-07 09:54:00,
2013-02-07 06:09:00,78.0,74.0,29.86,SE,137,6.0,8.0,87,0.00,,,0.00,weatherlink.com 1.10,2013-02-07 10:09:00,
2013-02-07 06:24:00,78.2,74.0,29.86,ENE,71,7.0,10.0,86,0.00,,,0.00,weatherlink.com 1.10,2013-02-07 10:24:00,
2013-02-07 06:39:00,78.1,74.0,29.87,ENE,71,2.0,9.0,86,0.00,,,0.00,weatherlink.com 1.10,2013-02-07 10:39:00,
2013-02-07 06:55:00,78.2,74.0,29.87,East,101,2.0,10.0,86,0.00,,,0.00,weatherlink.com 1.10,2013-02-07 10:55:00,
2013-02-07 07:10:00,78.2,73.0,29.88,East,99,5.0,12.0,83,0.00,,,0.00,weatherlink.com 1.10,2013-02-07 11:10:00,
2013-02-07 07:25:00,78.4,73.0,29.88,East,83,2.0,10.0,83,0.00,,,0.00,weatherlink.com 1.10,2013-02-07 11:25:00,
2013-02-07 07:40:00,79.1,73.0,29.89,ENE,57,3.0,9.0,82,0.00,,,0.00,weatherlink.com 1.10,2013-02-07 11:40:00,
2013-02-07 07:55:00,80.0,74.0,29.89,ESE,107,5.0,13.0,82,0.00,,,0.00,weatherlink.com 1.10,2013-02-07 11:55:00,
2013-02-07 08:10:00,80.9,74.0,29.90,ESE,111,3.0,10.0,79,0.00,,,0.00,weatherlink.com 1.10,2013-02-07 12:10:00,
2013-02-07 08:25:00,81.2,73.0,29.90,East,80,9.0,15.0,77,0.00,,,0.00,weatherlink.com 1.10,2013-02-07 12:25:00,
2013-02-07 08:40:00,81.6,74.0,29.91,East,84,2.0,11.0,77,0.00,,,0.00,weatherlink.com 1.10,2013-02-07 12:40:00,
2013-02-07 08:55:00,82.4,74.0,29.91,East,82,13.0,14.0,75,0.00,,,0.00,weatherlink.com 1.10,2013-02-07 12:55:00,
2013-02-07 09:10:00,81.7,74.0,29.91,ESE,121,4.0,14.0,77,0.00,,,0.00,weatherlink.com 1.10,2013-02-07 13:10:00,
2013-02-07 09:25:00,82.8,75.0,29.92,ENE,65,5.0,14.0,76,0.00,,,0.00,weatherlink.com 1.10,2013-02-07 13:25:00,
2013-02-07 09:40:00,83.2,75.0,29.92,ESE,103,13.0,16.0,75,0.00,,,0.00,weatherlink.com 1.10,2013-02-07 13:40:00,
2013-02-07 09:55:00,82.6,74.0,29.92,East,90,8.0,16.0,76,0.00,,,0.00,weatherlink.com 1.10,2013-02-07 13:55:00,
2013-02-07 10:10:00,84.4,75.0,29.92,ESE,105,8.0,15.0,74,0.00,,,0.00,weatherlink.com 1.10,2013-02-07 14:10:00,
2013-02-07 10:25:00,84.3,74.0,29.92,East,92,9.0,16.0,70,0.00,,,0.00,weatherlink.com 1.10,2013-02-07 14:25:00,
2013-02-07 10:40:00,85.1,75.0,29.92,East,92,6.0,16.0,71,0.00,,,0.00,weatherlink.com 1.10,2013-02-07 14:40:00,
2013-02-07 10:55:00,84.1,74.0,29.92,East,96,8.0,16.0,72,0.00,,,0.00,weatherlink.com 1.10,2013-02-07 14:55:00,
2013-02-07 11:10:00,85.2,74.0,29.91,ESE,102,14.0,19.0,69,0.00,,,0.00,weatherlink.com 1.10,2013-02-07 15:10:00,
2013-02-07 11:25:00,85.6,74.0,29.91,East,94,5.0,15.0,68,0.00,,,0.00,weatherlink.com 1.10,2013-02-07 15:25:00,
2013-02-07 11:40:00,85.0,74.0,29.90,ESE,110,5.0,17.0,70,0.00,,,0.00,weatherlink.com 1.10,2013-02-07 15:40:00,
2013-02-07 11:55:00,85.5,74.0,29.90,ENE,78,10.0,18.0,68,0.00,,,0.00,weatherlink.com 1.10,2013-02-07 15:55:00,
2013-02-07 12:10:00,84.7,74.0,29.89,East,89,6.0,17.0,71,0.00,,,0.00,weatherlink.com 1.10,2013-02-07 16:10:00,
2013-02-07 12:25:00,85.8,73.0,29.89,East,80,14.0,14.0,66,0.00,,,0.00,weatherlink.com 1.10,2013-02-07 16:25:00,
2013-02-07 12:40:00,85.2,74.0,29.88,ESE,123,5.0,15.0,68,0.00,,,0.00,weatherlink.com 1.10,2013-02-07 16:40:00,
2013-02-07 12:55:00,85.2,73.0,29.87,East,98,6.0,19.0,67,0.00,,,0.00,weatherlink.com 1.10,2013-02-07 16:55:00,
2013-02-07 13:10:00,85.5,73.0,29.87,ESE,113,5.0,16.0,67,0.00,,,0.00,weatherlink.com 1.10,2013-02-07 17:10:00,
2013-02-07 13:25:00,84.9,72.0,29.86,East,79,11.0,18.0,66,0.00,,,0.00,weatherlink.com 1.10,2013-02-07 17:25:00,
2013-02-07 13:40:00,84.9,73.0,29.86,ENE,78,12.0,16.0,68,0.00,,,0.00,weatherlink.com 1.10,2013-02-07 17:40:00,
2013-02-07 13:55:00,84.8,74.0,29.85,ESE,114,11.0,16.0,69,0.00,,,0.00,weatherlink.com 1.10,2013-02-07 17:55:00,
2013-02-07 14:10:00,85.1,74.0,29.84,NNE,26,8.0,14.0,69,0.00,,,0.00,weatherlink.com 1.10,2013-02-07 18:10:00,
2013-02-07 14:25:00,84.4,74.0,29.83,East,96,8.0,18.0,70,0.00,,,0.00,weatherlink.com 1.10,2013-02-07 18:25:00,
2013-02-07 14:40:00,83.8,74.0,29.83,ESE,123,9.0,14.0,72,0.00,,,0.00,weatherlink.com 1.10,2013-02-07 18:40:00,
2013-02-07 14:55:00,84.0,74.0,29.82,ENE,74,7.0,13.0,72,0.00,,,0.00,weatherlink.com 1.10,2013-02-07 18:55:00,
2013-02-07 15:10:00,83.6,74.0,29.82,ENE,67,10.0,14.0,73,0.00,,,0.00,weatherlink.com 1.10,2013-02-07 19:10:00,
2013-02-07 15:25:00,83.3,74.0,29.82,East,92,9.0,16.0,74,0.00,,,0.00,weatherlink.com 1.10,2013-02-07 19:25:00,
2013-02-07 15:44:00,83.5,74.0,29.82,NE,45,9.0,17.0,73,0.00,,,0.00,weatherlink.com 1.10,2013-02-07 19:44:00,
2013-02-07 15:59:00,82.9,74.0,29.81,SE,139,10.0,15.0,75,0.00,,,0.00,weatherlink.com 1.10,2013-02-07 19:59:00,
2013-02-07 16:10:00,82.9,75.0,29.81,East,98,13.0,16.0,76,0.00,,,0.00,weatherlink.com 1.10,2013-02-07 20:10:00,
2013-02-07 16:26:00,83.1,76.0,29.82,ENE,60,7.0,16.0,78,0.00,,,0.00,weatherlink.com 1.10,2013-02-07 20:26:00,
2013-02-07 16:41:00,82.2,76.0,29.82,NE,39,5.0,13.0,80,0.00,,,0.00,weatherlink.com 1.10,2013-02-07 20:41:00,
2013-02-07 16:56:00,82.0,76.0,29.82,East,91,7.0,12.0,81,0.00,,,0.00,weatherlink.com 1.10,2013-02-07 20:56:00,
2013-02-07 17:11:00,82.0,75.0,29.82,ENE,58,4.0,13.0,80,0.00,,,0.00,weatherlink.com 1.10,2013-02-07 21:11:00,
2013-02-07 17:26:00,81.5,75.0,29.82,ENE,73,8.0,12.0,81,0.00,,,0.00,weatherlink.com 1.10,2013-02-07 21:26:00,
2013-02-07 17:41:00,80.8,75.0,29.83,East,86,7.0,12.0,83,0.00,,,0.00,weatherlink.com 1.10,2013-02-07 21:41:00,
2013-02-07 17:56:00,80.8,75.0,29.83,ENE,57,3.0,12.0,82,0.00,,,0.00,weatherlink.com 1.10,2013-02-07 21:56:00,
2013-02-07 18:11:00,80.7,75.0,29.83,East,86,11.0,13.0,82,0.00,,,0.00,weatherlink.com 1.10,2013-02-07 22:11:00,
2013-02-07 18:26:00,80.4,74.0,29.83,ENE,71,4.0,13.0,81,0.00,,,0.00,weatherlink.com 1.10,2013-02-07 22:26:00,
2013-02-07 18:41:00,80.1,75.0,29.83,East,80,6.0,14.0,83,0.00,,,0.00,weatherlink.com 1.10,2013-02-07 22:41:00,
2013-02-07 19:11:00,79.7,74.0,29.84,NE,53,5.0,13.0,83,0.00,,,0.00,weatherlink.com 1.10,2013-02-07 23:11:00,
2013-02-07 19:26:00,79.3,75.0,29.84,NE,36,4.0,12.0,85,0.00,,,0.00,weatherlink.com 1.10,2013-02-07 23:26:00,
2013-02-07 19:41:00,79.5,74.0,29.84,ENE,76,4.0,12.0,84,0.00,,,0.00,weatherlink.com 1.10,2013-02-07 23:41:00,
2013-02-07 19:56:00,79.7,73.0,29.85,ESE,119,5.0,14.0,80,0.00,,,0.00,weatherlink.com 1.10,2013-02-07 23:56:00,
2013-02-07 20:11:00,79.9,74.0,29.86,ENE,57,5.0,15.0,81,0.00,,,0.00,weatherlink.com 1.10,2013-02-08 00:11:00,
2013-02-07 20:26:00,80.0,74.0,29.86,NE,44,4.0,13.0,81,0.00,,,0.00,weatherlink.com 1.10,2013-02-08 00:26:00,
2013-02-07 20:41:00,80.0,74.0,29.86,East,97,10.0,14.0,82,0.00,,,0.00,weatherlink.com 1.10,2013-02-08 00:41:00,
2013-02-07 20:56:00,80.0,74.0,29.87,NE,56,4.0,13.0,81,0.00,,,0.00,weatherlink.com 1.10,2013-02-08 00:56:00,
2013-02-07 21:11:00,80.0,74.0,29.87,ENE,61,10.0,15.0,81,0.00,,,0.00,weatherlink.com 1.10,2013-02-08 01:11:00,
2013-02-07 21:26:00,79.9,74.0,29.87,NE,53,5.0,12.0,82,0.00,,,0.00,weatherlink.com 1.10,2013-02-08 01:26:00,
2013-02-07 21:41:00,79.8,74.0,29.88,East,87,5.0,12.0,81,0.00,,,0.00,weatherlink.com 1.10,2013-02-08 01:41:00,
2013-02-07 21:56:00,79.8,74.0,29.89,East,88,8.0,12.0,82,0.00,,,0.00,weatherlink.com 1.10,2013-02-08 01:56:00,
2013-02-07 22:11:00,79.9,74.0,29.89,NNE,31,3.0,14.0,81,0.00,,,0.00,weatherlink.com 1.10,2013-02-08 02:11:00,
2013-02-07 22:26:00,79.9,74.0,29.89,ENE,58,5.0,12.0,82,0.00,,,0.00,weatherlink.com 1.10,2013-02-08 02:26:00,
2013-02-07 22:41:00,79.9,74.0,29.89,ENE,69,2.0,16.0,81,0.00,,,0.00,weatherlink.com 1.10,2013-02-08 02:41:00,
2013-02-07 22:56:00,79.7,74.0,29.89,ENE,76,4.0,13.0,82,0.00,,,0.00,weatherlink.com 1.10,2013-02-08 02:56:00,
2013-02-07 23:11:00,79.5,74.0,29.88,ENE,75,4.0,10.0,82,0.00,,,0.00,weatherlink.com 1.10,2013-02-08 03:11:00,
2013-02-07 23:26:00,79.5,74.0,29.88,ENE,78,5.0,9.0,82,0.00,,,0.00,weatherlink.com 1.10,2013-02-08 03:26:00,
2013-02-07 23:41:00,79.5,74.0,29.88,NE,55,4.0,12.0,83,0.00,,,0.00,weatherlink.com 1.10,2013-02-08 03:41:00,
2013-02-07 23:56:00,79.6,74.0,29.87,ENE,71,5.0,14.0,83,0.00,,,0.00,weatherlink.com 1.10,2013-02-08 03:56:00,